Weather & Traffic



KLGB 052353Z 04006KT 10SM CLR 25/M04 A3023 RMK AO2 SLP236 T02501044 10256 20189 56012


TAF KLGB 051733Z 0518/0618 34007KT P6SM SCT250 FM052300 35007KT P6SM SCT250 FM060400 VRB03KT P6SM SCT250